Terminal Aerodrome Forecast
Issued by NWS Rapid City, SD

Home | Current Version | Previous Version | Text Only | Print | Product List | Glossary Off
Versions: 1 2 3 4 5 6 7 8 9 10 11 12 13 14 15 16

000
FTUS43 KUNR 191100
TAFRAP
TAF
KRAP 191120Z 1912/2012 33012KT P6SM BKN120
     FM191800 36015KT P6SM SCT250=

USA.gov is the U.S. government's official web portal to all federal, state and local government web resources and services.